Terminal Aerodrome Forecast
Issued by NWS

Home | Current Version | Previous Version | Text Only | Print | Product List | Glossary On
Versions: 1 2 3 4 5 6 7 8 9 10 11 12 13 14 15 16 17 18
000
FTUS43 KDLH 030500
TAFHYR
TAF
KHYR 030527Z 0306/0406 19010KT P6SM SCT040 OVC080
     FM031000 18012KT 6SM -SN SCT030 OVC050
      TEMPO 0310/0314 3SM -SN SCT012 OVC025
     FM031400 19008KT 1SM -SN OVC015
     FM032100 29014G25KT 5SM BLSN OVC025=

USA.gov is the U.S. government's official web portal to all federal, state and local government web resources and services.